Time;durP1;ratioP1;P1;durP2;ratioP2;P2;SDS_P1;SDS_P2;PMS_P1;PMS_P2;Temp;Humidity;BMP_temperature;BMP_pressure;BME280_temperature;BME280_humidity;BME280_pressure;Samples;Min_cycle;Max_cycle;Signal;HPM_P1;HPM_P2
2022/05/04 00:00:21;;;;;;;13.52;3.85;;;8.40;66.60;;;;;;5039585;28;20077;-66
2022/05/04 00:02:47;;;;;;;6.32;2.85;;;8.30;66.50;;;;;;5049791;28;20040;-65
2022/05/04 00:05:12;;;;;;;12.10;3.30;;;8.30;66.70;;;;;;5034185;28;20044;-66
2022/05/04 00:07:38;;;;;;;8.27;2.88;;;8.30;66.70;;;;;;5042496;28;20550;-65
2022/05/04 00:10:05;;;;;;;11.48;3.22;;;8.30;66.80;;;;;;5044958;28;20029;-65
2022/05/04 00:12:32;;;;;;;9.88;3.00;;;8.30;66.90;;;;;;5047997;28;20393;-65
2022/05/04 00:14:58;;;;;;;6.55;2.72;;;8.30;66.90;;;;;;5037867;28;20498;-65
2022/05/04 00:17:24;;;;;;;7.57;2.60;;;8.30;66.90;;;;;;5033442;28;20037;-66
2022/05/04 00:19:49;;;;;;;9.02;2.90;;;8.30;66.90;;;;;;5034748;28;20140;-65
2022/05/04 00:22:19;;;;;;;8.35;3.50;;;8.20;67.00;;;;;;5045283;28;20547;-65
2022/05/04 00:24:45;;;;;;;10.32;2.72;;;8.20;67.00;;;;;;5049707;28;20040;-65
2022/05/04 00:27:11;;;;;;;7.55;2.83;;;8.30;67.20;;;;;;5049578;28;20067;-66
2022/05/04 00:29:37;;;;;;;8.98;3.10;;;8.20;67.00;;;;;;5045324;28;20049;-65
2022/05/04 00:32:02;;;;;;;12.90;3.20;;;8.20;67.20;;;;;;5047513;28;20053;-66
2022/05/04 00:34:28;;;;;;;8.02;2.70;;;8.20;67.00;;;;;;5046502;28;20119;-66
2022/05/04 00:36:53;;;;;;;10.07;2.72;;;8.10;67.20;;;;;;5041493;28;20033;-65
2022/05/04 00:39:19;;;;;;;9.05;3.20;;;8.10;67.00;;;;;;5048136;28;20037;-65
2022/05/04 00:41:44;;;;;;;9.10;3.17;;;8.20;67.10;;;;;;5046006;28;20102;-66
2022/05/04 00:44:10;;;;;;;10.38;2.80;;;8.20;67.30;;;;;;5034225;28;20104;-65
2022/05/04 00:46:35;;;;;;;7.80;2.42;;;8.10;67.30;;;;;;5036275;28;20041;-66
2022/05/04 00:49:01;;;;;;;7.88;3.17;;;8.20;67.40;;;;;;5044448;28;20396;-66
2022/05/04 00:51:27;;;;;;;10.75;2.83;;;8.10;67.30;;;;;;5040786;28;20056;-65
2022/05/04 00:53:53;;;;;;;10.77;3.42;;;8.10;67.40;;;;;;5061758;28;20397;-65
2022/05/04 00:56:19;;;;;;;9.70;3.08;;;8.10;67.50;;;;;;5032856;28;20049;-65
2022/05/04 00:58:54;;;;;;;8.32;3.22;;;8.10;67.70;;;;;;5045850;28;20040;-66
2022/05/04 01:01:25;;;;;;;8.50;2.92;;;8.10;67.80;;;;;;5034828;28;20049;-65
2022/05/04 01:03:50;;;;;;;9.18;3.25;;;8.10;68.00;;;;;;5049097;28;20523;-65
2022/05/04 01:06:16;;;;;;;13.40;3.25;;;8.10;68.10;;;;;;5045577;28;20041;-65
2022/05/04 01:08:42;;;;;;;14.45;3.25;;;8.10;68.30;;;;;;5043001;28;20036;-65
2022/05/04 01:11:07;;;;;;;9.77;3.10;;;8.10;68.40;;;;;;5040724;28;20048;-65
2022/05/04 01:13:33;;;;;;;13.82;3.00;;;8.10;68.40;;;;;;5047881;28;20033;-66
2022/05/04 01:15:58;;;;;;;12.00;3.70;;;8.00;68.70;;;;;;5040622;28;20071;-65
2022/05/04 01:18:24;;;;;;;8.38;2.60;;;8.00;68.90;;;;;;5042689;28;20052;-65
2022/05/04 01:20:49;;;;;;;7.45;3.45;;;8.00;69.00;;;;;;5040060;28;20072;-65
2022/05/04 01:23:16;;;;;;;9.13;2.83;;;8.00;69.00;;;;;;5048979;28;20076;-65
2022/05/04 01:25:42;;;;;;;12.90;3.00;;;8.00;69.20;;;;;;5040180;28;20071;-65
2022/05/04 01:28:08;;;;;;;9.15;3.58;;;8.00;69.10;;;;;;5044129;28;20044;-66
2022/05/04 01:30:34;;;;;;;7.38;3.22;;;8.00;69.50;;;;;;5047446;28;20358;-65
2022/05/04 01:33:01;;;;;;;8.27;2.80;;;8.00;69.20;;;;;;5045138;28;20041;-65
2022/05/04 01:35:27;;;;;;;11.05;3.08;;;8.00;69.20;;;;;;5048555;28;20557;-65
2022/05/04 01:37:53;;;;;;;13.95;3.90;;;8.00;69.20;;;;;;5046680;28;20060;-65
2022/05/04 01:40:18;;;;;;;9.50;3.33;;;8.00;69.30;;;;;;5046607;28;20049;-65
2022/05/04 01:42:44;;;;;;;10.93;3.17;;;7.90;69.40;;;;;;5046844;28;20045;-65
2022/05/04 01:45:10;;;;;;;10.20;2.80;;;7.90;69.90;;;;;;5038586;28;20037;-65
2022/05/04 01:47:36;;;;;;;10.73;3.13;;;8.00;69.90;;;;;;5046667;28;20044;-65
2022/05/04 01:50:04;;;;;;;7.75;2.92;;;7.90;69.80;;;;;;5033113;28;20029;-65
2022/05/04 01:52:29;;;;;;;10.27;2.90;;;7.90;69.50;;;;;;5045456;28;20071;-65
2022/05/04 01:54:55;;;;;;;6.28;2.55;;;7.90;69.60;;;;;;5034261;28;20103;-65
2022/05/04 01:57:21;;;;;;;12.48;3.63;;;7.90;69.60;;;;;;5040178;28;20045;-65
2022/05/04 01:59:47;;;;;;;9.20;3.15;;;8.00;69.90;;;;;;5042208;28;20037;-65
2022/05/04 02:02:13;;;;;;;8.27;2.78;;;7.90;69.70;;;;;;5047118;28;20068;-65
2022/05/04 02:04:39;;;;;;;9.52;2.92;;;7.90;69.80;;;;;;5045246;28;20123;-65
2022/05/04 02:07:07;;;;;;;9.57;2.80;;;7.90;69.80;;;;;;5046444;28;20041;-65
2022/05/04 02:09:34;;;;;;;9.32;3.20;;;7.90;69.90;;;;;;5036213;28;20053;-66
2022/05/04 02:11:59;;;;;;;10.77;3.40;;;7.80;69.70;;;;;;5047567;28;20041;-65
2022/05/04 02:14:25;;;;;;;8.10;2.83;;;7.80;70.00;;;;;;5046925;28;20400;-65
2022/05/04 02:16:51;;;;;;;10.52;3.20;;;7.80;70.20;;;;;;5046469;28;20061;-65
2022/05/04 02:19:16;;;;;;;8.13;3.30;;;7.80;70.40;;;;;;5045063;28;20037;-65
2022/05/04 02:21:42;;;;;;;12.52;3.13;;;7.70;70.60;;;;;;5044304;28;20053;-66
2022/05/04 02:24:08;;;;;;;6.40;2.90;;;7.70;70.70;;;;;;5042416;28;20116;-65
2022/05/04 02:26:34;;;;;;;9.80;3.33;;;7.70;71.60;;;;;;5043725;28;20570;-66
2022/05/04 02:28:59;;;;;;;6.82;2.78;;;7.70;71.80;;;;;;5038720;28;20025;-66
2022/05/04 02:31:25;;;;;;;8.82;3.35;;;7.60;72.10;;;;;;5043861;28;20366;-65
2022/05/04 02:33:50;;;;;;;10.95;3.25;;;7.60;72.10;;;;;;5046713;28;20044;-65
2022/05/04 02:39:00;;;;;;;8.80;3.17;;;7.60;72.30;;;;;;5040602;28;20049;-66
2022/05/04 02:41:26;;;;;;;9.57;3.30;;;7.60;72.50;;;;;;5038172;28;20044;-65
2022/05/04 02:43:51;;;;;;;7.28;2.65;;;7.60;72.40;;;;;;5043875;28;20033;-66
2022/05/04 02:46:19;;;;;;;9.52;3.60;;;7.60;72.60;;;;;;5047823;28;20070;-65
2022/05/04 02:48:46;;;;;;;10.00;2.90;;;7.60;72.80;;;;;;5040029;28;20045;-66
2022/05/04 02:51:11;;;;;;;9.68;2.88;;;7.50;72.80;;;;;;5039980;28;20053;-65
2022/05/04 02:53:37;;;;;;;8.93;3.03;;;7.50;72.70;;;;;;5041138;28;20562;-66
2022/05/04 02:56:05;;;;;;;8.32;3.08;;;7.50;72.70;;;;;;5046225;28;20052;-66
2022/05/04 02:58:31;;;;;;;8.07;2.92;;;7.50;72.70;;;;;;5046647;28;20041;-66
2022/05/04 03:04:03;;;;;;;9.15;3.22;;;7.50;74.00;;;;;;5045398;28;20098;-65
2022/05/04 03:06:29;;;;;;;6.35;3.10;;;7.40;73.50;;;;;;5047745;28;20060;-65
2022/05/04 03:08:55;;;;;;;11.20;3.17;;;7.40;73.00;;;;;;5042131;28;20065;-65
2022/05/04 03:14:07;;;;;;;8.55;2.92;;;7.40;73.50;;;;;;5049337;28;20513;-66
2022/05/04 03:16:36;;;;;;;11.85;3.22;;;7.40;73.70;;;;;;5044227;28;20048;-65
2022/05/04 03:19:05;;;;;;;9.85;3.15;;;7.40;73.20;;;;;;5053297;28;20098;-66
2022/05/04 03:21:32;;;;;;;7.97;2.92;;;7.40;73.60;;;;;;5037991;28;20048;-66
2022/05/04 03:23:57;;;;;;;9.00;2.55;;;7.40;73.40;;;;;;5050453;28;20055;-66
2022/05/04 03:26:24;;;;;;;10.68;3.20;;;7.40;73.20;;;;;;5046686;28;20473;-65
2022/05/04 03:28:50;;;;;;;10.15;2.88;;;7.40;73.20;;;;;;5052583;28;20039;-65
2022/05/04 03:31:16;;;;;;;15.32;3.38;;;7.30;73.50;;;;;;5040441;28;20037;-65
2022/05/04 03:33:42;;;;;;;12.00;3.70;;;7.40;73.80;;;;;;5050990;28;20052;-65
2022/05/04 03:36:08;;;;;;;9.32;2.97;;;7.30;73.90;;;;;;5048945;28;20033;-65
2022/05/04 03:38:34;;;;;;;7.90;3.17;;;7.30;74.00;;;;;;5051688;28;20037;-66
2022/05/04 03:40:59;;;;;;;10.73;3.03;;;7.30;73.70;;;;;;5040967;28;20042;-65
2022/05/04 03:43:25;;;;;;;12.52;3.45;;;7.30;73.70;;;;;;5046377;28;20449;-65
2022/05/04 03:45:51;;;;;;;8.90;2.72;;;7.30;74.30;;;;;;5049162;28;20477;-65
2022/05/04 03:48:16;;;;;;;5.85;2.67;;;7.30;74.10;;;;;;5052352;28;20037;-65
2022/05/04 03:50:44;;;;;;;8.90;2.85;;;7.30;74.00;;;;;;5037251;28;22262;-65
2022/05/04 03:53:11;;;;;;;10.88;3.72;;;7.30;74.10;;;;;;5036098;28;20041;-65
2022/05/04 03:55:36;;;;;;;14.73;4.00;;;7.30;74.60;;;;;;5043498;28;20550;-65
2022/05/04 03:58:02;;;;;;;8.20;3.17;;;7.30;74.50;;;;;;5045735;28;20029;-65
2022/05/04 04:00:28;;;;;;;11.27;3.85;;;7.20;74.40;;;;;;5048391;28;20052;-65
2022/05/04 04:02:53;;;;;;;10.02;3.08;;;7.30;74.30;;;;;;5040294;28;20037;-65
2022/05/04 04:05:19;;;;;;;11.63;3.42;;;7.20;74.30;;;;;;5045100;28;20038;-65
2022/05/04 04:07:45;;;;;;;9.68;3.42;;;7.20;74.30;;;;;;5040853;28;20051;-65
2022/05/04 04:10:10;;;;;;;9.90;3.20;;;7.30;74.30;;;;;;5048763;28;20041;-65
2022/05/04 04:12:36;;;;;;;7.85;3.28;;;7.30;74.30;;;;;;5047837;28;20041;-65
2022/05/04 04:15:02;;;;;;;7.97;2.95;;;7.30;74.30;;;;;;5061065;28;20103;-65
2022/05/04 04:17:27;;;;;;;6.53;2.88;;;7.30;74.30;;;;;;5050134;28;20075;-66
2022/05/04 04:22:37;;;;;;;8.85;3.30;;;7.30;74.80;;;;;;5036563;28;20037;-66
2022/05/04 04:25:04;;;;;;;12.13;3.72;;;7.30;74.50;;;;;;5048469;28;20417;-65
2022/05/04 04:27:32;;;;;;;14.95;3.28;;;7.40;74.60;;;;;;5042641;28;20049;-66
2022/05/04 04:29:58;;;;;;;6.93;3.20;;;7.30;74.60;;;;;;5045850;28;20045;-65
2022/05/04 04:32:24;;;;;;;13.98;3.20;;;7.30;74.80;;;;;;5048866;28;20060;-65
2022/05/04 04:34:49;;;;;;;9.88;2.90;;;7.30;75.10;;;;;;5050662;28;20045;-65
2022/05/04 04:37:15;;;;;;;10.30;3.88;;;7.40;74.60;;;;;;5043895;28;20465;-65
2022/05/04 04:39:40;;;;;;;10.70;3.20;;;7.40;74.80;;;;;;5050123;28;20045;-65
2022/05/04 04:42:06;;;;;;;6.68;2.97;;;7.40;75.30;;;;;;5048104;28;20044;-65
2022/05/04 04:44:32;;;;;;;9.20;3.38;;;7.40;75.00;;;;;;5042186;28;20073;-66
2022/05/04 04:46:57;;;;;;;8.13;3.35;;;7.40;74.90;;;;;;5045726;28;20365;-65
2022/05/04 04:49:25;;;;;;;7.80;2.92;;;7.50;74.90;;;;;;5042844;28;20613;-65
2022/05/04 04:51:50;;;;;;;9.68;3.17;;;7.50;74.80;;;;;;5033775;28;20505;-66
2022/05/04 04:54:16;;;;;;;14.77;3.70;;;7.50;75.00;;;;;;5044764;28;20049;-65
2022/05/04 04:56:42;;;;;;;9.13;3.42;;;7.50;74.90;;;;;;5044160;28;20045;-65
2022/05/04 04:59:08;;;;;;;9.93;3.45;;;7.60;74.80;;;;;;5044411;28;20523;-66
2022/05/04 05:01:34;;;;;;;8.13;3.20;;;7.60;74.70;;;;;;5037252;28;20064;-65
2022/05/04 05:03:59;;;;;;;11.55;3.65;;;7.60;74.40;;;;;;5059748;28;20139;-66
2022/05/04 05:06:25;;;;;;;7.90;3.22;;;7.70;74.30;;;;;;5039193;28;20056;-66
2022/05/04 05:08:50;;;;;;;11.82;3.13;;;7.70;74.20;;;;;;5033719;28;20493;-65
2022/05/04 05:11:16;;;;;;;5.55;2.80;;;7.70;75.20;;;;;;5037955;28;20211;-65
2022/05/04 05:16:26;;;;;;;9.98;2.88;;;7.70;75.00;;;;;;5041758;28;20076;-65
2022/05/04 05:18:52;;;;;;;8.88;3.40;;;7.70;74.20;;;;;;5043219;28;20064;-65
2022/05/04 05:21:18;;;;;;;11.48;3.50;;;7.80;73.90;;;;;;5042761;28;20041;-65
2022/05/04 05:23:43;;;;;;;8.15;3.20;;;7.90;74.00;;;;;;5042997;28;20076;-66
2022/05/04 05:26:09;;;;;;;13.18;3.38;;;7.90;74.00;;;;;;5035643;28;20362;-65
2022/05/04 05:28:34;;;;;;;8.98;2.97;;;8.00;74.00;;;;;;5047535;28;20520;-66
2022/05/04 05:31:00;;;;;;;10.65;3.40;;;8.00;73.80;;;;;;5047104;28;20866;-66
2022/05/04 05:33:25;;;;;;;17.30;3.85;;;8.10;73.40;;;;;;5036908;28;20033;-65
2022/05/04 05:35:51;;;;;;;9.02;3.17;;;8.10;73.50;;;;;;5046214;28;20033;-65
2022/05/04 05:38:17;;;;;;;8.35;3.30;;;8.10;73.10;;;;;;5044025;28;20037;-66
2022/05/04 05:40:42;;;;;;;4.95;2.72;;;8.20;72.90;;;;;;5047665;28;20055;-66
2022/05/04 05:43:08;;;;;;;10.00;3.13;;;8.30;72.60;;;;;;5040376;28;20045;-66
2022/05/04 05:45:34;;;;;;;11.73;3.05;;;8.30;72.40;;;;;;5049617;28;20079;-66
2022/05/04 05:48:00;;;;;;;9.13;2.95;;;8.40;72.10;;;;;;5038521;28;20171;-65
2022/05/04 05:50:25;;;;;;;10.05;3.58;;;8.50;71.80;;;;;;5039887;28;20065;-65
2022/05/04 05:52:51;;;;;;;20.98;3.60;;;8.60;71.70;;;;;;5050116;28;20445;-65
2022/05/04 05:55:16;;;;;;;12.55;3.33;;;8.70;71.50;;;;;;5038968;28;20086;-66
2022/05/04 05:57:42;;;;;;;8.75;3.08;;;8.80;71.10;;;;;;5036416;28;20127;-65
2022/05/04 06:00:08;;;;;;;11.48;3.30;;;8.90;70.80;;;;;;5045003;28;20036;-65
2022/05/04 06:02:34;;;;;;;11.32;3.17;;;8.90;70.20;;;;;;5040925;28;20067;-65
2022/05/04 06:05:00;;;;;;;8.13;2.88;;;9.00;69.70;;;;;;5045689;28;20438;-66
2022/05/04 06:07:26;;;;;;;9.18;3.10;;;9.00;69.60;;;;;;5039047;28;20393;-66
2022/05/04 06:09:52;;;;;;;7.93;2.70;;;9.10;69.50;;;;;;5045857;28;20052;-66
2022/05/04 06:12:18;;;;;;;7.40;2.75;;;9.10;69.40;;;;;;5040095;28;20041;-65
2022/05/04 06:14:44;;;;;;;5.72;2.83;;;9.20;69.00;;;;;;5048245;28;20115;-66
2022/05/04 06:17:09;;;;;;;11.60;2.83;;;9.30;68.50;;;;;;5044470;28;20036;-65
2022/05/04 06:19:35;;;;;;;6.28;2.50;;;9.40;68.00;;;;;;5035305;28;20035;-66
2022/05/04 06:22:00;;;;;;;7.38;2.30;;;9.40;67.20;;;;;;5042382;28;20037;-66
2022/05/04 06:24:29;;;;;;;9.27;2.72;;;9.50;66.60;;;;;;5036722;28;21007;-65
2022/05/04 06:26:54;;;;;;;6.82;2.35;;;9.70;66.50;;;;;;5038498;28;20445;-66
2022/05/04 06:29:20;;;;;;;6.57;2.33;;;9.70;65.60;;;;;;5038450;28;20045;-66
2022/05/04 06:34:34;;;;;;;10.23;2.50;;;9.90;64.80;;;;;;5016617;28;20045;-66
2022/05/04 06:37:00;;;;;;;4.45;2.00;;;10.00;64.40;;;;;;5035738;28;20932;-65
2022/05/04 06:39:25;;;;;;;9.88;2.70;;;10.00;63.90;;;;;;5042997;28;20063;-66
2022/05/04 06:41:51;;;;;;;5.47;2.95;;;10.00;63.10;;;;;;5034905;28;20452;-66
2022/05/04 06:44:16;;;;;;;5.47;2.08;;;10.20;62.80;;;;;;5041567;28;20044;-66
2022/05/04 06:46:42;;;;;;;6.55;2.53;;;10.30;62.70;;;;;;5040757;28;20044;-66
2022/05/04 06:49:11;;;;;;;4.30;2.20;;;10.40;62.50;;;;;;5044461;28;20041;-66
2022/05/04 06:51:37;;;;;;;8.55;2.40;;;10.40;61.80;;;;;;5039384;28;20037;-66
2022/05/04 06:54:02;;;;;;;11.20;2.42;;;10.50;62.10;;;;;;5042215;28;20095;-66
2022/05/04 06:56:28;;;;;;;3.78;2.00;;;10.50;61.50;;;;;;5045527;28;20033;-66
2022/05/04 06:58:53;;;;;;;7.00;2.20;;;10.60;61.20;;;;;;5034343;28;20565;-66
2022/05/04 07:01:19;;;;;;;7.38;2.63;;;10.70;61.00;;;;;;5041392;28;20037;-66
2022/05/04 07:03:44;;;;;;;8.77;2.63;;;10.70;60.90;;;;;;5047419;28;20048;-66
2022/05/04 07:06:10;;;;;;;7.55;2.33;;;10.60;60.90;;;;;;5031827;28;20092;-66
2022/05/04 07:08:36;;;;;;;8.50;2.45;;;10.60;60.70;;;;;;5033466;28;20044;-66
2022/05/04 07:11:02;;;;;;;10.27;2.58;;;10.50;60.50;;;;;;5028563;28;20041;-66
2022/05/04 07:13:27;;;;;;;7.95;2.78;;;10.50;61.00;;;;;;5030423;28;20068;-66
2022/05/04 07:15:55;;;;;;;8.10;2.50;;;10.60;60.20;;;;;;5030305;28;20038;-66
2022/05/04 07:18:21;;;;;;;5.85;2.55;;;10.70;59.90;;;;;;5031926;28;20048;-66
2022/05/04 07:20:46;;;;;;;6.70;2.40;;;10.60;59.70;;;;;;5035075;28;20037;-66
2022/05/04 07:23:12;;;;;;;8.93;2.45;;;10.70;59.10;;;;;;5042491;28;20112;-67
2022/05/04 07:25:37;;;;;;;3.70;2.08;;;10.90;59.00;;;;;;5056321;28;20054;-66
2022/05/04 07:28:03;;;;;;;9.43;2.35;;;11.60;59.10;;;;;;5038637;28;20041;-67
2022/05/04 07:30:29;;;;;;;8.25;2.00;;;12.00;59.10;;;;;;5040065;28;20041;-67
2022/05/04 07:32:54;;;;;;;7.03;2.45;;;12.10;58.50;;;;;;5049287;28;20041;-67
2022/05/04 07:35:20;;;;;;;6.38;2.20;;;12.10;56.90;;;;;;5050249;28;20432;-67
2022/05/04 07:37:46;;;;;;;7.30;2.65;;;11.80;56.20;;;;;;5047568;28;20041;-67
2022/05/04 07:42:56;;;;;;;7.03;2.20;;;12.40;56.60;;;;;;5043408;28;20048;-66
2022/05/04 07:45:22;;;;;;;9.80;2.28;;;12.40;56.80;;;;;;5038157;28;20381;-66
2022/05/04 07:47:47;;;;;;;8.88;2.50;;;12.50;56.70;;;;;;5018536;28;20049;-67
2022/05/04 07:50:13;;;;;;;6.63;2.58;;;13.00;56.50;;;;;;5037864;28;20079;-67
2022/05/04 07:52:41;;;;;;;7.55;2.30;;;13.20;55.60;;;;;;5042831;28;20033;-67
2022/05/04 07:55:08;;;;;;;8.25;2.30;;;13.50;55.10;;;;;;5034539;28;20045;-67
2022/05/04 07:57:33;;;;;;;7.95;2.60;;;14.20;54.40;;;;;;5050433;28;20120;-67
2022/05/04 08:05:33;;;;;;;6.15;1.98;;;15.40;50.60;;;;;;5044985;28;20081;-67
2022/05/04 08:07:58;;;;;;;6.03;1.90;;;15.70;51.00;;;;;;5049403;28;20373;-68
2022/05/04 08:10:25;;;;;;;5.63;1.90;;;16.00;49.90;;;;;;5041964;28;20045;-68
2022/05/04 08:12:51;;;;;;;5.60;2.00;;;15.60;48.40;;;;;;5038442;28;20204;-67
2022/05/04 08:15:17;;;;;;;5.82;2.10;;;15.70;48.10;;;;;;5048992;28;20080;-67
2022/05/04 08:17:43;;;;;;;7.72;2.50;;;15.50;47.30;;;;;;5047219;28;20084;-68
2022/05/04 08:20:09;;;;;;;8.82;2.20;;;15.40;47.00;;;;;;5050069;28;20065;-67
2022/05/04 08:22:35;;;;;;;5.30;1.92;;;15.90;46.50;;;;;;5035175;28;20037;-68
2022/05/04 08:25:01;;;;;;;7.50;1.90;;;16.20;46.10;;;;;;5050116;28;20033;-68
2022/05/04 08:27:26;;;;;;;8.40;2.00;;;16.80;45.70;;;;;;5029219;28;20052;-69
2022/05/04 08:29:52;;;;;;;4.05;1.98;;;17.00;45.90;;;;;;5030758;28;20052;-68
2022/05/04 08:32:18;;;;;;;5.22;2.10;;;17.70;44.80;;;;;;5040667;28;20037;-66
2022/05/04 08:34:43;;;;;;;7.60;2.70;;;18.20;43.90;;;;;;5043979;28;20125;-67
2022/05/04 08:37:09;;;;;;;5.28;2.00;;;18.20;43.10;;;;;;5067741;28;20048;-66
2022/05/04 08:39:34;;;;;;;5.60;2.05;;;17.80;42.60;;;;;;5052837;28;20064;-66
2022/05/04 08:42:02;;;;;;;5.70;2.10;;;17.20;42.90;;;;;;5050231;28;20079;-66
2022/05/04 08:44:27;;;;;;;8.75;2.40;;;16.90;43.20;;;;;;5041347;28;20400;-68
2022/05/04 08:46:55;;;;;;;9.07;2.30;;;16.80;43.20;;;;;;5046592;28;20037;-68
2022/05/04 08:49:22;;;;;;;7.47;2.15;;;16.80;43.00;;;;;;5050524;28;20043;-67
2022/05/04 08:51:49;;;;;;;6.68;1.88;;;17.50;42.20;;;;;;5049270;28;20041;-67
2022/05/04 08:54:14;;;;;;;6.65;1.85;;;18.20;42.00;;;;;;5045173;28;20132;-68
2022/05/04 08:56:40;;;;;;;5.07;1.80;;;19.10;41.00;;;;;;5043956;28;20128;-69
2022/05/04 08:59:07;;;;;;;7.10;2.35;;;19.60;39.70;;;;;;5039908;28;20041;-69
2022/05/04 09:01:42;;;;;;;5.47;2.25;;;20.00;38.70;;;;;;5047647;28;20041;-68
2022/05/04 09:04:08;;;;;;;8.10;2.10;;;20.50;36.90;;;;;;5034856;28;20041;-68
2022/05/04 09:06:41;;;;;;;6.53;1.90;;;20.80;36.80;;;;;;5038074;28;20032;-68
2022/05/04 09:09:13;;;;;;;7.25;2.33;;;21.40;35.80;;;;;;5048879;28;20762;-68
2022/05/04 09:11:44;;;;;;;5.60;2.10;;;21.00;35.80;;;;;;5038504;28;20076;-67
2022/05/04 09:14:15;;;;;;;6.25;2.30;;;20.70;34.50;;;;;;5049123;28;20056;-68
2022/05/04 09:16:43;;;;;;;5.00;2.13;;;20.70;34.10;;;;;;5049515;28;20120;-68
2022/05/04 09:19:13;;;;;;;6.65;2.03;;;21.00;34.40;;;;;;5042817;28;20103;-69
2022/05/04 09:21:39;;;;;;;7.70;2.05;;;21.60;33.70;;;;;;5049948;28;20039;-69
2022/05/04 09:24:05;;;;;;;4.70;2.10;;;22.00;33.50;;;;;;5037446;28;20041;-68
2022/05/04 09:26:32;;;;;;;5.88;1.77;;;22.30;31.90;;;;;;5051006;28;20041;-69
2022/05/04 09:29:00;;;;;;;6.25;2.33;;;22.50;31.80;;;;;;5043994;28;20117;-68
2022/05/04 09:31:27;;;;;;;5.95;2.15;;;22.30;31.10;;;;;;5036266;28;20390;-68
2022/05/04 09:33:54;;;;;;;5.60;1.85;;;22.50;30.80;;;;;;5052785;28;20044;-68
2022/05/04 09:45:15;;;;;;;6.28;2.00;;;21.00;33.50;;;;;;5047242;28;20040;-68
2022/05/04 09:47:42;;;;;;;5.18;2.10;;;20.20;32.70;;;;;;5048129;28;20122;-68
2022/05/04 09:50:15;;;;;;;5.68;2.13;;;19.80;34.40;;;;;;5049579;28;20044;-68
2022/05/04 09:52:46;;;;;;;5.60;1.90;;;19.20;33.80;;;;;;5034521;28;20037;-68
2022/05/04 09:55:22;;;;;;;5.55;1.92;;;19.20;34.60;;;;;;5043493;28;20119;-67
2022/05/04 09:57:49;;;;;;;4.68;2.08;;;19.70;35.00;;;;;;5050203;28;20120;-68
2022/05/04 10:00:18;;;;;;;5.32;2.22;;;20.00;34.60;;;;;;5040545;28;20119;-68
2022/05/04 10:02:44;;;;;;;4.43;1.70;;;20.10;34.20;;;;;;5047376;28;20049;-68
2022/05/04 10:05:10;;;;;;;5.22;1.80;;;19.60;33.90;;;;;;5033083;28;20037;-68
2022/05/04 10:07:37;;;;;;;7.03;2.03;;;19.50;34.20;;;;;;5038047;28;20045;-67
2022/05/04 10:10:07;;;;;;;5.13;2.08;;;19.80;34.60;;;;;;5035107;28;20107;-68
2022/05/04 10:12:38;;;;;;;5.82;2.00;;;20.20;33.60;;;;;;5043948;28;20045;-68
2022/05/04 10:15:07;;;;;;;5.78;1.90;;;20.20;33.50;;;;;;5035480;28;20041;-68
2022/05/04 10:17:35;;;;;;;9.45;2.60;;;20.00;32.80;;;;;;5040413;28;20083;-68
2022/05/04 10:20:15;;;;;;;5.85;2.00;;;18.70;33.70;;;;;;5047091;28;20041;-67
2022/05/04 10:22:57;;;;;;;5.97;2.00;;;18.60;35.00;;;;;;5045929;28;20029;-68
2022/05/04 10:25:24;;;;;;;5.97;2.05;;;18.10;35.70;;;;;;5045650;28;20056;-67
2022/05/04 10:27:50;;;;;;;6.82;2.33;;;17.50;36.20;;;;;;5038131;28;20037;-68
2022/05/04 10:30:31;;;;;;;6.10;2.17;;;17.20;36.90;;;;;;5049445;28;20043;-68
2022/05/04 10:33:02;;;;;;;5.13;2.10;;;17.20;37.30;;;;;;5041008;28;20036;-68
2022/05/04 10:35:38;;;;;;;6.22;2.08;;;17.20;37.60;;;;;;5045987;28;20044;-67
2022/05/04 10:38:07;;;;;;;9.13;2.55;;;17.70;37.60;;;;;;5043446;28;20053;-68
2022/05/04 10:40:34;;;;;;;5.67;2.10;;;18.00;37.10;;;;;;5048881;28;20055;-67
2022/05/04 10:43:03;;;;;;;6.35;2.40;;;18.10;36.90;;;;;;5035919;28;20068;-67
2022/05/04 10:45:30;;;;;;;5.97;2.78;;;17.60;36.70;;;;;;5035558;28;20362;-66
2022/05/04 10:48:17;;;;;;;10.05;2.78;;;17.40;36.90;;;;;;5038254;28;20460;-67
2022/05/04 10:50:55;;;;;;;7.43;2.30;;;17.30;38.10;;;;;;5039071;28;20051;-67
2022/05/04 10:53:25;;;;;;;6.95;2.40;;;16.90;38.00;;;;;;5043828;28;20037;-66
2022/05/04 10:56:12;;;;;;;9.07;2.63;;;16.60;37.80;;;;;;5032188;28;20044;-65
2022/05/04 10:59:01;;;;;;;4.38;2.67;;;16.40;38.00;;;;;;5034474;28;20041;-66
2022/05/04 11:01:31;;;;;;;6.20;2.30;;;16.10;39.00;;;;;;5043965;28;20048;-66
2022/05/04 11:04:22;;;;;;;7.35;2.38;;;15.90;38.80;;;;;;5038222;28;20346;-66
2022/05/04 11:06:53;;;;;;;6.82;2.47;;;15.90;39.70;;;;;;5042933;28;20768;-67
2022/05/04 11:09:21;;;;;;;7.50;2.30;;;16.00;39.50;;;;;;5046700;28;20048;-67
2022/05/04 11:11:48;;;;;;;9.65;2.85;;;16.00;39.30;;;;;;5040342;28;20033;-67
2022/05/04 11:14:16;;;;;;;7.40;2.35;;;16.40;39.20;;;;;;5045722;28;21811;-65
2022/05/04 11:16:43;;;;;;;7.45;2.53;;;16.50;38.90;;;;;;5051288;28;20045;-66
2022/05/04 11:19:11;;;;;;;4.40;2.08;;;16.50;39.00;;;;;;5037735;28;20397;-67
2022/05/04 11:21:37;;;;;;;7.90;2.20;;;16.40;38.30;;;;;;5040347;28;20107;-65
2022/05/04 11:24:07;;;;;;;5.68;2.10;;;16.30;38.60;;;;;;5047823;28;20404;-66
2022/05/04 11:26:59;;;;;;;7.25;2.50;;;16.30;39.10;;;;;;5043539;28;20045;-66
2022/05/04 11:29:27;;;;;;;7.88;2.20;;;16.10;38.50;;;;;;5037034;28;20056;-67
2022/05/04 11:31:59;;;;;;;6.88;2.63;;;16.30;39.30;;;;;;5031653;28;20072;-65
2022/05/04 11:34:30;;;;;;;5.38;2.42;;;16.40;39.00;;;;;;5052613;28;20047;-67
2022/05/04 11:36:58;;;;;;;8.40;2.60;;;16.60;39.40;;;;;;5053504;28;20183;-66
2022/05/04 11:39:26;;;;;;;8.10;2.58;;;16.50;39.60;;;;;;5053699;28;20481;-66
2022/05/04 11:41:55;;;;;;;7.28;2.70;;;16.70;39.20;;;;;;5050731;28;20045;-67
2022/05/04 11:44:23;;;;;;;6.05;2.55;;;16.80;39.30;;;;;;5047589;28;20037;-67
2022/05/04 11:46:59;;;;;;;5.45;2.70;;;16.70;40.00;;;;;;5050052;28;20465;-66
2022/05/04 11:49:27;;;;;;;6.38;2.67;;;17.00;40.10;;;;;;5048132;28;20397;-67
2022/05/04 11:51:55;;;;;;;7.30;2.67;;;17.30;39.60;;;;;;5053398;28;20120;-66
2022/05/04 11:54:21;;;;;;;5.15;2.50;;;17.00;38.60;;;;;;5054544;28;20060;-67
2022/05/04 11:56:47;;;;;;;7.90;2.53;;;16.90;38.10;;;;;;5044719;28;20036;-67
2022/05/04 11:59:13;;;;;;;6.60;2.47;;;17.10;38.50;;;;;;5051948;28;20080;-67
2022/05/04 12:01:40;;;;;;;6.60;2.67;;;17.00;38.80;;;;;;5049754;28;20119;-66
2022/05/04 12:04:07;;;;;;;6.60;2.00;;;17.20;38.90;;;;;;5047603;28;20580;-65
2022/05/04 12:06:34;;;;;;;7.03;2.22;;;17.10;38.90;;;;;;5053140;28;20040;-66
2022/05/04 12:09:01;;;;;;;5.95;2.20;;;17.10;38.60;;;;;;5052941;28;20458;-67
2022/05/04 12:11:28;;;;;;;6.47;2.53;;;17.10;38.30;;;;;;5052155;28;20052;-67
2022/05/04 12:13:56;;;;;;;8.77;2.40;;;17.10;38.40;;;;;;5032820;28;20512;-73
2022/05/04 12:16:23;;;;;;;9.20;2.50;;;17.10;38.50;;;;;;5041387;28;20120;-68
2022/05/04 12:18:49;;;;;;;7.22;2.78;;;17.50;38.60;;;;;;5054309;28;20044;-67
2022/05/04 12:21:17;;;;;;;8.75;2.80;;;17.90;37.50;;;;;;5052943;28;20051;-68
2022/05/04 12:23:44;;;;;;;7.20;2.30;;;18.30;37.30;;;;;;5052530;28;20049;-67
2022/05/04 12:26:12;;;;;;;8.25;2.70;;;18.50;37.00;;;;;;5051308;28;20068;-67
2022/05/04 12:28:39;;;;;;;5.43;2.63;;;18.60;36.20;;;;;;5048929;28;20037;-67
2022/05/04 12:33:50;;;;;;;7.03;2.38;;;18.80;36.00;;;;;;5047000;28;20068;-66
2022/05/04 12:36:23;;;;;;;9.48;2.90;;;19.90;35.20;;;;;;5053044;28;20045;-67
2022/05/04 12:38:51;;;;;;;7.22;3.17;;;19.90;34.10;;;;;;5051005;28;20072;-66
2022/05/04 12:41:19;;;;;;;7.43;3.20;;;20.20;33.20;;;;;;5050817;28;20044;-67
2022/05/04 12:43:46;;;;;;;5.82;2.47;;;20.10;33.20;;;;;;5047804;28;20037;-66
2022/05/04 12:46:16;;;;;;;7.95;3.10;;;20.00;33.40;;;;;;5032585;28;20096;-67
2022/05/04 12:48:46;;;;;;;8.25;2.63;;;19.70;33.70;;;;;;5032447;28;20056;-66
2022/05/04 12:51:16;;;;;;;;;;;19.50;34.00;;;;;;5047746;28;20111;-66
2022/05/04 12:53:48;;;;;;;7.40;2.85;;;20.00;33.00;;;;;;5052164;28;19921;-66
2022/05/04 12:59:01;;;;;;;8.80;2.50;;;20.30;33.90;;;;;;5047106;28;20034;-67
2022/05/04 13:01:28;;;;;;;6.78;2.78;;;21.50;32.80;;;;;;5041564;28;20601;-67
2022/05/04 13:03:54;;;;;;;7.38;2.28;;;23.10;31.40;;;;;;5045307;28;20109;-67
2022/05/04 13:06:21;;;;;;;4.75;2.85;;;25.10;30.30;;;;;;5032274;28;20048;-67
2022/05/04 13:08:48;;;;;;;5.47;2.45;;;26.40;28.50;;;;;;5041982;28;20049;-67
2022/05/04 13:11:14;;;;;;;7.63;3.15;;;26.70;27.20;;;;;;5034095;28;20051;-67
2022/05/04 13:13:40;;;;;;;7.97;2.78;;;26.30;26.90;;;;;;5044233;28;20084;-68
2022/05/04 13:16:06;;;;;;;8.05;2.60;;;26.70;26.80;;;;;;5038822;28;20087;-68
2022/05/04 13:18:31;;;;;;;8.02;3.40;;;27.80;26.70;;;;;;5033291;28;20044;-69
2022/05/04 13:20:57;;;;;;;8.35;2.50;;;28.90;26.00;;;;;;5045873;28;20033;-67
2022/05/04 13:23:23;;;;;;;5.95;2.85;;;29.30;25.30;;;;;;5048323;28;20432;-67
2022/05/04 13:25:48;;;;;;;8.65;2.78;;;29.10;24.50;;;;;;5050248;28;20045;-67
2022/05/04 13:28:14;;;;;;;7.28;2.58;;;29.20;24.20;;;;;;5048123;28;20471;-67